Terminal Aerodrome Forecast
Issued by NWS

Home | Current Version | Previous Version | Text Only | Print | Product List | Glossary On
Versions: 1 2 3 4 5 6 7 8 9 10 11 12
000
FTUS46 KSTO 030500
TAFMHR
TAF
KMHR 030520Z 0306/0406 22008KT P6SM SKC
     FM031000 14004KT P6SM SCT012
      TEMPO 0312/0316 OVC015
     FM031700 25006KT P6SM FEW025
     FM032100 29005KT P6SM SKC=

USA.gov is the U.S. government's official web portal to all federal, state and local government web resources and services.